Flight Track Log - Related Links

Times and Time Zones

All times are in EDT time to prevent confusion due to time zone crossing. See the N677F flight status page for this flight to view local times or setup timezone preferences in your user account.

Time Position Orientation Groundspeed Altitude Reporting Facility
EDT Latitude Longitude Course Direction KTS MPH feet Rate Location/Type
Fri 01:17:34 PM 39.9500 -105.1500 18° North 217 250 8,000  Level Denver TRACON
Fri 01:18:34 PM 40.0167 -105.1500 360° North 255 293 10,200 1,826 Climbing Denver TRACON
Fri 01:19:06 PM 40.0597 -105.1211 27° Northeast 284 327 10,800 1,596 Climbing Denver Center
Fri 01:20:08 PM 40.1347 -105.0400 40° Northeast 345 397 12,700 2,177 Climbing Denver Center
Fri 01:21:10 PM 40.2208 -104.9486 39° Northeast 366 421 15,300 2,323 Climbing Denver Center
Fri 01:22:12 PM 40.3053 -104.8589 39° Northeast 387 445 17,500 2,177 Climbing Denver Center
Fri 01:23:00 PM 39.9088 -105.1172 18° North  Level Estimated
Fri 01:23:14 PM 40.3894 -104.7678 39° Northeast 392 451 19,800  Level Denver Center
Fri 01:24:16 PM 40.4819 -104.6683 39° Northeast 401 461 21,700 1,597 Climbing Denver Center
Fri 01:25:18 PM 40.5714 -104.5719 39° Northeast 414 476 23,100 1,210 Climbing Denver Center
Fri 01:26:20 PM 40.6611 -104.4717 40° Northeast 428 493 24,200 919 Climbing Denver Center
Fri 01:27:22 PM 40.7650 -104.3833 33° Northeast 445 512 25,000 384 Climbing Denver Center
Fri 01:28:25 PM 40.9064 -104.3333 15° North 433 498 25,000  Level Denver Center
Fri 01:29:27 PM 41.0067 -104.3053 12° North 382 440 25,000  Level Denver Center
Fri 01:30:29 PM 41.0961 -104.2856 North 348 400 25,000  Level Denver Center
Fri 01:31:31 PM 41.2000 -104.2556 12° North 341 392 25,000  Level Denver Center
Fri 01:32:33 PM 41.2453 -104.1678 56° Northeast 322 371 25,000  Level Denver Center
Fri 01:33:35 PM 41.1758 -104.0897 140° Southeast 321 369 25,000  Level Denver Center
Fri 01:34:37 PM 41.0922 -104.1150 193° South 318 366 25,000  Level Denver Center
Fri 01:35:39 PM 40.9950 -104.1433 192° South 321 369 25,000  Level Denver Center
Fri 01:36:41 PM 40.9653 -104.2456 249° West 317 365 25,000  Level Denver Center
Fri 01:37:43 PM 41.0500 -104.2994 334° Northwest 340 391 25,000  Level Denver Center
Fri 01:38:45 PM 41.1400 -104.2717 13° North 347 399 25,000 -339 Level Denver Center
Fri 01:39:47 PM 41.2339 -104.2211 22° Northeast 338 389 24,300 -1,161 Descending Denver Center
Fri 01:40:49 PM 41.2281 -104.1175 94° East 318 366 22,600 -1,113 Descending Denver Center
Fri 01:41:51 PM 41.1364 -104.1028 173° South 308 354 22,000 -290 Descending Denver Center
Fri 01:42:53 PM 41.0547 -104.1250 192° South 313 360 22,000  Level Denver Center
Fri 01:43:56 PM 40.9792 -104.1764 207° Southwest 308 354 22,000  Level Denver Center
Fri 01:44:58 PM 40.9933 -104.2786 280° West 307 353 22,000  Level Denver Center
Fri 01:46:00 PM 41.0933 -104.2864 357° North 320 368 22,000  Level Denver Center
Fri 01:47:02 PM 41.1775 -104.2625 12° North 324 373 22,000 -629 Level Denver Center
Fri 01:48:04 PM 41.2381 -104.1783 46° Northeast 314 361 20,700 -1,452 Descending Denver Center
Fri 01:49:06 PM 41.1836 -104.1094 136° Southeast 306 352 19,000 -823 Descending Denver Center
Fri 01:50:08 PM 41.0897 -104.1350 192° South 311 358 19,000  Level Denver Center
Fri 01:51:10 PM 41.0114 -104.1606 194° South 305 351 19,000  Level Denver Center
Fri 01:52:12 PM 41.0022 -104.2711 264° West 291 335 19,000  Level Denver Center
Fri 01:53:14 PM 41.0711 -104.2978 344° North 285 328 19,000  Level Denver Center
Fri 01:54:16 PM 41.1592 -104.2678 14° North 289 333 19,000 -435 Level Denver Center
Fri 01:55:18 PM 41.2244 -104.2228 27° Northeast 290 334 18,100 -1,306 Descending Denver Center
Fri 01:56:20 PM 41.1914 -104.1372 117° Southeast 310 357 16,300 -1,016 Descending Denver Center
Fri 01:57:22 PM 41.1028 -104.1567 189° South 286 329 16,000 -145 Descending Denver Center
Fri 01:58:24 PM 41.0314 -104.1825 195° South 280 322 16,000  Level Denver Center
Fri 01:59:27 PM 41.0225 -104.2742 263° West 250 288 16,000  Level Denver Center
Fri 02:00:29 PM 41.0842 -104.2942 346° North 251 289 16,000  Level Denver Center
Fri 02:01:31 PM 41.1628 -104.2681 14° North 259 298 16,000 -484 Level Denver Center
Fri 02:02:33 PM 41.2217 -104.2253 29° Northeast 261 300 15,000 -1,452 Descending Denver Center
Fri 02:03:35 PM 41.1744 -104.1472 129° Southeast 288 331 13,000 -968 Descending Denver Center
Fri 02:04:37 PM 41.1042 -104.1647 191° South 271 312 13,000  Level Denver Center
Fri 02:05:39 PM 41.0350 -104.2089 206° Southwest 261 300 13,000  Level Denver Center
Fri 02:06:41 PM 41.0467 -104.2825 282° West 237 273 13,000  Level Denver Center
Fri 02:07:43 PM 41.1150 -104.2792 North 226 260 13,000  Level Denver Center
Fri 02:08:45 PM 41.1739 -104.2622 12° North 226 260 13,000 -871 Level Denver Center
Fri 02:09:47 PM 41.2167 -104.1997 48° Northeast 248 285 11,200 -1,452 Descending Denver Center
Fri 02:10:49 PM 41.1511 -104.1683 160° South 299 344 10,000 -581 Descending Denver Center
Fri 02:11:51 PM 41.0714 -104.1908 192° South 268 308 10,000  Level Denver Center
Fri 02:12:53 PM 41.0483 -104.2644 247° West 268 308 10,000  Level Denver Center
Fri 02:13:56 PM 41.1058 -104.2828 346° North 206 237 10,000  Level Denver Center
Fri 02:14:58 PM 41.1586 -104.2667 13° North 202 232 10,000 -532 Level Denver Center
Fri 02:16:00 PM 41.2106 -104.2267 30° Northeast 215 247 8,900 -968 Descending Denver Center
Fri 02:17:02 PM 41.1669 -104.1769 139° Southeast 258 297 8,000 -435 Descending Denver Center
Fri 02:18:04 PM 41.0914 -104.2006 193° South 249 287 8,000  Level Denver Center
Fri 02:19:06 PM 41.0542 -104.2542 227° Southwest 235 270 8,000  Level Denver Center
Fri 02:20:08 PM 41.1033 -104.2864 334° Northwest 201 231 8,000  Level Denver Center
Fri 02:21:10 PM 41.1558 -104.2708 13° North 200 230 8,000 290 Level Denver Center
Fri 02:22:12 PM 41.2117 -104.2364 25° Northeast 203 234 8,600 1,065 Climbing Denver Center
Fri 02:23:14 PM 41.1822 -104.1631 118° Southeast 263 303 10,200 1,161 Climbing Denver Center
Fri 02:24:16 PM 41.0939 -104.1817 189° South 286 329 11,000 387 Climbing Denver Center
Fri 02:25:18 PM 41.0303 -104.2264 208° Southwest 285 328 11,000  Level Denver Center
Fri 02:26:20 PM 41.0706 -104.2953 308° West 254 292 11,000  Level Denver Center
Fri 02:27:22 PM 41.1361 -104.2756 13° North 248 285 11,000 629 Level Denver Center
Fri 02:28:24 PM 41.2100 -104.2511 14° North 246 283 12,300 1,440 Climbing Denver Center
Fri 02:29:27 PM 41.2064 -104.1489 93° East 308 354 14,000 816 Climbing Denver Center
Fri 02:30:29 PM 41.1069 -104.1589 184° South 331 381 14,000  Level Denver Center
Fri 02:31:31 PM 41.0233 -104.1833 192° South 326 375 14,000  Level Denver Center
Fri 02:32:33 PM 41.0092 -104.2842 259° West 296 341 14,000  Level Denver Center
Fri 02:33:35 PM 41.0844 -104.2883 358° North 295 339 14,000  Level Denver Center
Fri 02:34:37 PM 41.1839 -104.2625 11° North 324 373 14,000 726 Level Denver Center
Fri 02:35:39 PM 41.2481 -104.1806 44° Northeast 359 413 15,500 1,452 Climbing Denver Center
Fri 02:36:41 PM 41.1867 -104.0819 130° Southeast 403 464 17,000 726 Climbing Denver Center
Fri 02:37:43 PM 41.0681 -104.1111 191° South 391 450 17,000  Level Denver Center
Fri 02:38:45 PM 40.9672 -104.1417 193° South 389 448 17,000  Level Denver Center
Fri 02:39:47 PM 40.9531 -104.2669 262° West 376 433 17,000  Level Denver Center
Fri 02:40:49 PM 41.0475 -104.3019 344° North 357 411 17,000  Level Denver Center
Fri 02:41:51 PM 41.1567 -104.2703 12° North 359 413 17,000 435 Level Denver Center
Fri 02:42:53 PM 41.2419 -104.2192 24° Northeast 366 421 17,900 1,452 Climbing Denver Center
Fri 02:43:55 PM 41.2211 -104.0739 101° East 403 464 20,000 1,016 Climbing Denver Center
Fri 02:44:57 PM 41.1181 -104.0742 180° South 392 451 20,000  Level Denver Center
Fri 02:45:59 PM 40.9972 -104.1067 191° South 398 458 20,000  Level Denver Center
Fri 02:47:01 PM 40.9206 -104.2036 224° Southwest 390 449 20,000  Level Denver Center
Fri 02:48:03 PM 40.9792 -104.3097 306° West 385 443 20,000  Level Denver Center
Fri 02:49:04 PM 41.0847 -104.2897 North 394 453 20,000  Level Denver Center
Fri 02:50:06 PM 41.2061 -104.2547 12° North 400 460 20,000 774 Level Denver Center
Fri 02:51:08 PM 41.2533 -104.1400 61° Northeast 404 465 21,600 1,452 Climbing Denver Center
Fri 02:52:10 PM 41.1547 -104.0622 149° Southeast 417 480 23,000 677 Climbing Denver Center
Fri 02:53:12 PM 41.0458 -104.0933 192° South 420 483 23,000  Level Denver Center
Fri 02:54:14 PM 40.9328 -104.1528 202° Southwest 415 478 23,000  Level Denver Center
Fri 02:55:16 PM 40.9414 -104.2878 275° West 413 475 23,000  Level Denver Center
Fri 02:56:18 PM 41.0442 -104.2975 356° North 415 478 23,000  Level Denver Center
Fri 02:57:19 PM 41.1700 -104.2656 11° North 412 474 23,000 537 Level Denver Center
Fri 02:58:21 PM 41.2594 -104.1947 31° Northeast 408 470 24,100 1,452 Climbing Denver Center
Fri 02:59:23 PM 41.2339 -104.0400 102° East 415 478 26,000 919 Climbing Denver Center
Fri 03:00:25 PM 41.1233 -104.0292 176° South 432 497 26,000  Level Denver Center
Fri 03:01:27 PM 40.9953 -104.0653 192° South 423 487 26,000  Level Denver Center
Fri 03:02:29 PM 40.8961 -104.1211 203° Southwest 403 464 26,000  Level Denver Center
Fri 03:03:31 PM 40.8900 -104.2581 267° West 409 471 26,000  Level Denver Center
Fri 03:04:33 PM 40.9742 -104.3614 317° Northwest 427 491 26,000 581 Level Denver Center
Fri 03:05:35 PM 41.1153 -104.3772 355° North 446 513 27,200 1,171 Climbing Denver Center
Fri 03:06:36 PM 41.2386 -104.3744 North 462 532 28,400 1,171 Climbing Denver Center
Fri 03:07:38 PM 41.3889 -104.3700 North 484 557 29,600 1,065 Climbing Denver Center
Fri 03:08:40 PM 41.5203 -104.3656 North 493 567 30,600 1,210 Climbing Denver Center
Fri 03:09:42 PM 41.6747 -104.3625 North 497 572 32,100 1,597 Climbing Denver Center
Fri 03:10:44 PM 41.8044 -104.3603 North 491 565 33,900 1,597 Climbing Denver Center
Fri 03:11:46 PM 41.9556 -104.3564 North 488 562 35,400 1,161 Climbing Denver Center
Fri 03:12:48 PM 42.0867 -104.3522 North 493 567 36,300 919 Climbing Denver Center
Fri 03:13:50 PM 42.2203 -104.3497 North 501 577 37,300 1,220 Climbing Denver Center
Fri 03:14:51 PM 42.3758 -104.3447 North 504 580 38,800 1,317 Climbing Denver Center
Fri 03:15:53 PM 42.5281 -104.3408 North 497 572 40,000 581 Climbing Denver Center
Fri 03:16:55 PM 42.6575 -104.3375 North 495 570 40,000  Level Denver Center
Fri 03:17:57 PM 42.8092 -104.3342 North 493 567 40,000  Level Denver Center
Fri 03:18:59 PM 42.9403 -104.3306 North 494 568 40,000  Level Denver Center
Fri 03:20:01 PM 43.0928 -104.3264 North 493 567 40,000  Level Denver Center
Fri 03:21:03 PM 43.2231 -104.3300 359° North 491 565 40,000  Level Denver Center
Fri 03:22:04 PM 43.3289 -104.4225 328° Northwest 477 549 40,000  Level Denver Center
Fri 03:23:06 PM 43.3678 -104.5997 287° West 443 510 40,000  Level Denver Center
Fri 03:24:08 PM 43.3875 -104.7544 280° West 448 516 40,000  Level Denver Center
Fri 03:25:10 PM 43.4986 -104.8728 322° Northwest 470 541 40,000  Level Denver Center
Fri 03:26:12 PM 43.6244 -104.8506 North 482 555 40,000  Level Denver Center
Fri 03:27:13 PM 43.7167 -104.6950 51° Northeast 477 549 40,000  Level Denver Center
Fri 03:28:15 PM 43.7331 -104.5250 82° East 468 539 40,000 -919 Level Denver Center
Fri 03:29:17 PM 43.7375 -104.3256 88° East 465 535 38,100 -2,129 Descending Denver Center
Fri 03:30:19 PM 43.6914 -104.1747 113° Southeast 448 516 35,600 -2,371 Descending Denver Center
Fri 03:31:21 PM 43.6169 -104.0556 131° Southeast 425 489 33,200 -2,537 Descending Denver Center
Fri 03:32:22 PM 43.5300 -103.9211 132° Southeast 420 483 30,400 -2,537 Descending Denver Center
Fri 03:33:24 PM 43.4544 -103.8039 132° Southeast 423 487 28,000 -2,516 Descending Denver Center
Fri 03:34:26 PM 43.3669 -103.6708 132° Southeast 422 486 25,200 -2,537 Descending Denver Center
Fri 03:35:27 PM 43.2961 -103.5617 132° Southeast 412 474 22,800 -2,488 Descending Denver Center
Fri 03:36:29 PM 43.2167 -103.4417 132° Southeast 394 453 20,100 -1,355 Descending Denver Center
Fri 03:37:31 PM 43.1403 -103.3594 142° Southeast 388 447 20,000 -48 Descending Denver Center
Fri 03:38:33 PM 43.0447 -103.3183 163° South 384 442 20,000  Level Denver Center
Fri 03:39:34 PM 42.9250 -103.3372 187° South 388 447 20,000  Level Denver Center
Fri 03:40:36 PM 42.8283 -103.3928 203° Southwest 393 452 20,000  Level Denver Center
Fri 03:41:38 PM 42.7150 -103.4544 202° Southwest 392 451 20,000  Level Denver Center
Fri 03:42:40 PM 42.6186 -103.5072 202° Southwest 391 450 20,000  Level Denver Center
Fri 03:43:42 PM 42.5053 -103.5697 202° Southwest 391 450 20,000  Level Denver Center
Fri 03:44:43 PM 42.4061 -103.6219 201° Southwest 397 457 20,000  Level Denver Center
Fri 03:45:45 PM 42.3081 -103.6769 203° Southwest 396 456 20,000  Level Denver Center
Fri 03:46:47 PM 42.1950 -103.7358 201° Southwest 389 448 20,000  Level Denver Center
Fri 03:47:49 PM 42.0961 -103.7892 202° Southwest 396 456 20,000  Level Denver Center
Fri 03:48:51 PM 41.9811 -103.8503 202° Southwest 396 456 20,000  Level Denver Center
Fri 03:49:52 PM 41.8808 -103.9028 201° Southwest 401 461 20,000  Level Denver Center
Fri 03:50:54 PM 41.7814 -103.9556 202° Southwest 401 461 20,000  Level Denver Center
Fri 03:51:56 PM 41.6661 -104.0167 202° Southwest 400 460 20,000  Level Denver Center
Fri 03:52:58 PM 41.5661 -104.0689 201° Southwest 401 461 20,000  Level Denver Center
Fri 03:54:00 PM 41.4514 -104.1281 201° Southwest 397 457 20,000  Level Denver Center
Fri 03:55:00 PM 41.3161 -104.2349 211° Southwest  Level FlightAware Approximate
Fri 03:56:04 PM 41.2394 -104.2381 211° Southwest 394 453 20,000  Level Denver Center
Fri 03:57:06 PM 41.1431 -104.2892 202° Southwest 390 449 20,000  Level Denver Center
Fri 03:58:08 PM 41.0303 -104.3464 201° Southwest 389 448 20,000  Level Denver Center
Fri 03:59:10 PM 40.9400 -104.3917 201° Southwest 391 450 20,000  Level Denver Center
Fri 04:00:12 PM 40.8389 -104.4442 201° Southwest 392 451 20,000  Level Denver Center
Fri 04:01:13 PM 40.7178 -104.5075 202° Southwest 396 456 20,000  Level Denver Center
Fri 04:02:15 PM 40.6139 -104.5603 201° Southwest 399 459 20,000  Level Denver Center
Fri 04:03:17 PM 40.5028 -104.6169 201° Southwest 397 457 20,000 -1,161 Level Denver Center
Fri 04:04:19 PM 40.4019 -104.6661 200° South 388 447 17,600 -2,952 Descending Denver Center
Fri 04:05:21 PM 40.3081 -104.7161 202° Southwest 366 421 13,900 -2,903 Descending Denver Center
Fri 04:06:23 PM 40.2347 -104.7914 218° Southwest 319 367 11,600 -1,839 Descending Denver Center
Fri 04:07:25 PM 40.2144 -104.8714 252° West 237 273 10,100 -1,258 Descending Denver Center
Fri 04:08:27 PM 40.1522 -104.9261 214° Southwest 249 287 9,000 -581 Descending Denver Center
Fri 04:09:29 PM 40.0789 -104.9256 180° South 260 299 8,900 -677 Descending Denver Center
Fri 04:10:31 PM 40.0078 -104.9236 179° South 256 295 7,600 -919 Descending Denver Center
Fri 04:11:33 PM 39.9314 -104.9183 177° South 255 293 7,000 -290 Descending Denver Center
Fri 04:12:35 PM 39.8633 -104.9031 170° South 249 287 7,000  Level Denver Center
Fri 04:13:37 PM 39.8281 -104.9408 219° Southwest 188 216 7,000  Level Denver Center
Fri 04:14:39 PM 39.8436 -104.9928 291° West 162 186 7,000 -145 Level Denver Center
Fri 04:15:41 PM 39.8694 -105.0425 304° West 156 180 6,700 -532 Descending Denver Center
Fri 04:16:43 PM 39.8919 -105.0842 305° West 143 165 5,900 -532 Descending Denver Center
Fri 04:17:45 PM 39.9108 -105.1208 304° West 121 139 5,600 -290 Descending Denver Center

Login

Don't have an account? Register now (free) for customized features, flight alerts, and more!